Time;durP1;ratioP1;P1;durP2;ratioP2;P2;SDS_P1;SDS_P2;PMS_P1;PMS_P2;Temp;Humidity;BMP_temperature;BMP_pressure;BME280_temperature;BME280_humidity;BME280_pressure;Samples;Min_cycle;Max_cycle;Signal;HPM_P1;HPM_P2
2022/01/10 00:01:38;;;;;;;54.10;24.18;;;;;;;-2.34;100.00;98335.17;4240823;82;44178;-77
2022/01/10 00:07:39;;;;;;;62.38;25.15;;;;;;;-2.37;100.00;98341.58;4248238;82;43767;-76
2022/01/10 00:13:41;;;;;;;66.37;28.23;;;;;;;-2.21;100.00;98355.75;4247402;82;43448;-74
2022/01/10 00:19:42;;;;;;;72.90;30.57;;;;;;;-2.19;100.00;98365.11;4250356;82;44130;-75
2022/01/10 00:25:43;;;;;;;79.72;31.35;;;;;;;-2.18;100.00;98368.58;4281457;82;43084;-75
2022/01/10 00:31:45;;;;;;;85.45;34.45;;;;;;;-2.21;100.00;98381.58;4276705;82;43606;-75
2022/01/10 00:37:46;;;;;;;85.32;32.20;;;;;;;-2.26;100.00;98385.21;4246787;83;43057;-76
2022/01/10 00:43:50;;;;;;;86.02;32.42;;;;;;;-2.28;100.00;98384.05;4232299;82;43243;-76
2022/01/10 00:49:51;;;;;;;70.45;29.98;;;;;;;-1.89;100.00;98389.63;4253209;82;44062;-75
2022/01/10 00:55:52;;;;;;;81.22;32.58;;;;;;;-2.22;100.00;98399.69;4270410;82;43113;-76
2022/01/10 01:01:54;;;;;;;82.30;33.05;;;;;;;-2.22;100.00;98405.46;4247361;82;43085;-74
2022/01/10 01:07:55;;;;;;;87.33;33.78;;;;;;;-2.29;100.00;98417.12;4246208;82;44145;-74
2022/01/10 01:14:00;;;;;;;89.90;36.42;;;;;;;-2.15;100.00;98415.65;4256288;82;44509;-77
2022/01/10 01:20:28;;;;;;;87.10;33.65;;;;;;;-2.21;100.00;98422.39;4245561;83;43799;-73
2022/01/10 01:26:14;;;;;;;90.35;33.88;;;;;;;-1.99;100.00;98424.88;4258330;82;44138;-74
2022/01/10 01:32:15;;;;;;;90.10;33.28;;;;;;;-2.18;100.00;98430.47;4245095;83;44116;-74
2022/01/10 01:38:16;;;;;;;93.40;36.10;;;;;;;-2.08;100.00;98434.25;4238039;82;44498;-74
2022/01/10 01:44:18;;;;;;;86.28;34.08;;;;;;;-2.08;100.00;98450.05;4241184;82;43634;-75
2022/01/10 01:50:19;;;;;;;88.62;36.42;;;;;;;-2.19;100.00;98443.31;4252558;83;44511;-75
2022/01/10 01:56:22;;;;;;;92.20;35.28;;;;;;;-2.34;100.00;98449.23;4252348;82;44264;-75
2022/01/10 02:02:24;;;;;;;89.05;36.38;;;;;;;-2.41;100.00;98450.86;4263726;82;44440;-75
2022/01/10 02:08:26;;;;;;;86.15;33.75;;;;;;;-2.31;100.00;98452.84;4279730;81;43385;-75
2022/01/10 02:14:28;;;;;;;94.15;34.33;;;;;;;-2.36;100.00;98457.77;4283217;82;44334;-75
2022/01/10 02:20:32;;;;;;;96.70;36.38;;;;;;;-2.25;100.00;98459.27;4343849;80;44479;-75
2022/01/10 02:26:33;;;;;;;91.57;36.60;;;;;;;-2.28;100.00;98465.68;4366100;80;28520;-75
2022/01/10 02:32:35;;;;;;;93.95;36.05;;;;;;;-2.28;100.00;98473.58;4289474;82;44449;-75
2022/01/10 02:38:37;;;;;;;91.05;35.98;;;;;;;-2.18;100.00;98489.73;4223599;82;44422;-74
2022/01/10 02:44:38;;;;;;;87.82;34.53;;;;;;;-2.44;100.00;98487.54;4200899;83;44104;-74
2022/01/10 02:50:39;;;;;;;88.15;33.67;;;;;;;-2.49;100.00;98489.84;4191980;83;44126;-75
2022/01/10 02:56:49;;;;;;;89.58;34.95;;;;;;;-2.53;100.00;98498.55;4128879;84;44130;-75
2022/01/10 03:02:53;;;;;;;82.37;33.73;;;;;;;-2.10;100.00;98504.23;4239287;82;43121;-74
2022/01/10 03:08:55;;;;;;;92.07;35.50;;;;;;;-2.32;100.00;98514.41;4238898;82;28531;-74
2022/01/10 03:15:00;;;;;;;87.90;33.05;;;;;;;-2.24;100.00;98521.49;4240388;82;44140;-73
2022/01/10 03:21:02;;;;;;;;;;;;;;;-2.42;100.00;98526.38;4248853;82;28484;-74
2022/01/10 03:27:04;;;;;;;85.15;33.40;;;;;;;-2.54;100.00;98531.61;4242489;82;43227;-75
2022/01/10 03:33:05;;;;;;;83.95;33.85;;;;;;;-2.55;100.00;98537.37;4239637;82;43090;-74
2022/01/10 03:39:11;;;;;;;83.33;33.38;;;;;;;-2.63;100.00;98534.70;4241949;82;43054;-74
2022/01/10 03:45:13;;;;;;;88.25;33.65;;;;;;;-2.74;100.00;98539.75;4240752;82;44111;-74
2022/01/10 03:51:14;;;;;;;84.07;33.55;;;;;;;-2.91;100.00;98547.25;4204777;81;43174;-74
2022/01/10 03:57:16;;;;;;;89.28;33.45;;;;;;;-2.84;100.00;98556.14;4242089;82;44102;-74
2022/01/10 04:03:19;;;;;;;87.02;33.70;;;;;;;-3.08;100.00;98574.25;4253948;82;44066;-75
2022/01/10 04:09:23;;;;;;;;;;;;;;;-3.08;100.00;98584.77;4257934;82;28524;-75
2022/01/10 04:15:24;;;;;;;83.75;33.58;;;;;;;-3.27;100.00;98591.05;4259783;82;43051;-73
2022/01/10 04:21:26;;;;;;;91.87;34.23;;;;;;;-3.19;100.00;98603.44;4251385;81;44110;-75
2022/01/10 04:27:32;;;;;;;86.72;33.00;;;;;;;-3.24;100.00;98613.09;4199289;83;43220;-74
2022/01/10 04:33:31;;;;;;;87.62;35.05;;;;;;;-3.29;100.00;98619.31;4139117;84;44125;-75
2022/01/10 04:39:34;;;;;;;83.17;33.75;;;;;;;-3.15;100.00;98626.31;4256452;82;43065;-75
2022/01/10 04:45:36;;;;;;;88.33;31.82;;;;;;;-3.22;100.00;98636.62;4261182;82;43448;-75
2022/01/10 04:51:38;;;;;;;86.85;32.75;;;;;;;-3.31;100.00;98650.20;4274274;81;43754;-75
2022/01/10 04:57:41;;;;;;;79.65;32.35;;;;;;;-3.16;100.00;98657.06;4284344;81;42552;-74
2022/01/10 05:03:43;;;;;;;83.27;32.67;;;;;;;-3.34;100.00;98666.25;4286100;81;43072;-75
2022/01/10 05:09:45;;;;;;;85.95;32.83;;;;;;;-3.31;100.00;98681.75;4290643;81;43130;-74
2022/01/10 05:15:50;;;;;;;77.72;31.37;;;;;;;-3.33;100.00;98692.06;4282932;81;42893;-75
2022/01/10 05:21:52;;;;;;;81.92;31.82;;;;;;;-3.51;100.00;98692.88;4275087;82;43060;-77
2022/01/10 05:27:54;;;;;;;78.37;31.87;;;;;;;-3.31;100.00;98698.84;4235766;83;43757;-75
2022/01/10 05:33:56;;;;;;;81.28;30.88;;;;;;;-3.43;100.00;98707.42;4283773;81;43021;-73
2022/01/10 05:39:57;;;;;;;79.22;31.70;;;;;;;-3.40;100.00;98724.70;4285155;81;42997;-71
2022/01/10 05:45:58;;;;;;;80.32;30.68;;;;;;;-3.40;100.00;98731.28;4135731;84;42573;-74
2022/01/10 05:52:01;;;;;;;82.42;32.33;;;;;;;-3.28;100.00;98734.50;4205952;83;43133;-73
2022/01/10 05:58:06;;;;;;;81.75;31.27;;;;;;;-3.44;100.00;98750.94;4207386;83;28525;-72
2022/01/10 06:04:09;;;;;;;75.83;31.37;;;;;;;-3.39;100.00;98771.86;4278025;81;34035;-72
2022/01/10 06:10:13;;;;;;;75.83;31.02;;;;;;;-3.41;100.00;98784.84;4276857;81;43800;-71
2022/01/10 06:16:16;;;;;;;79.92;30.20;;;;;;;-3.34;100.00;98806.10;4280745;81;43783;-71
2022/01/10 06:22:18;;;;;;;71.05;29.65;;;;;;;-3.62;100.00;98821.39;4278397;81;44132;-74
2022/01/10 06:28:20;;;;;;;72.82;27.87;;;;;;;-3.40;100.00;98844.32;4277504;81;44126;-73
2022/01/10 06:34:23;;;;;;;77.65;30.52;;;;;;;-3.52;100.00;98859.45;4277820;81;43589;-74
2022/01/10 06:40:24;;;;;;;68.37;28.85;;;;;;;-3.48;100.00;98871.34;4280306;81;44102;-76
2022/01/10 06:46:25;;;;;;;66.92;27.80;;;;;;;-3.44;100.00;98883.22;4282745;81;44170;-74
2022/01/10 06:52:27;;;;;;;70.83;28.47;;;;;;;-3.37;100.00;98902.70;4265151;81;44127;-74
2022/01/10 06:58:29;;;;;;;68.25;28.00;;;;;;;-3.40;100.00;98912.17;4241878;82;44118;-74
2022/01/10 07:04:34;;;;;;;64.17;26.27;;;;;;;-3.28;100.00;98931.70;4239336;83;43302;-74
2022/01/10 07:10:36;;;;;;;68.45;27.67;;;;;;;-3.34;100.00;98951.52;4243606;82;28503;-74
2022/01/10 07:16:38;;;;;;;64.40;26.35;;;;;;;-3.57;100.00;98953.69;4249053;82;43271;-75
2022/01/10 07:22:40;;;;;;;63.10;27.02;;;;;;;-3.39;100.00;98967.72;4242282;82;43443;-74
2022/01/10 07:28:42;;;;;;;70.52;27.22;;;;;;;-3.64;100.00;98981.83;4248762;82;44228;-75
2022/01/10 07:34:43;;;;;;;65.83;27.27;;;;;;;-3.52;100.00;98990.40;4240807;83;43526;-73
2022/01/10 07:40:45;;;;;;;72.15;28.92;;;;;;;-3.48;100.00;99008.03;4247719;82;44166;-73
2022/01/10 07:46:46;;;;;;;74.27;29.40;;;;;;;-3.64;100.00;99019.13;4248711;83;44102;-74
2022/01/10 07:52:48;;;;;;;74.20;30.55;;;;;;;-3.53;100.00;99029.48;4249817;82;44118;-74
2022/01/10 07:58:51;;;;;;;78.33;30.25;;;;;;;-3.46;100.00;99036.79;4254021;82;43748;-75
2022/01/10 08:04:52;;;;;;;72.25;30.45;;;;;;;-3.45;100.00;99046.33;4257078;82;44099;-76
2022/01/10 08:10:54;;;;;;;77.30;32.70;;;;;;;-3.47;100.00;99054.38;4257753;82;43254;-75
2022/01/10 08:16:56;;;;;;;72.12;30.77;;;;;;;-3.54;100.00;99071.67;4256137;82;44122;-76
2022/01/10 08:22:57;;;;;;;71.97;30.00;;;;;;;-3.01;100.00;99079.56;4256212;82;44095;-74
2022/01/10 08:28:58;;;;;;;64.45;27.35;;;;;;;-2.72;100.00;99089.14;4258375;82;43442;-74
2022/01/10 08:35:00;;;;;;;71.75;28.70;;;;;;;-2.68;100.00;99110.75;4260430;82;44158;-76
2022/01/10 08:41:02;;;;;;;70.47;26.85;;;;;;;-2.65;100.00;99109.16;4253976;82;44157;-77
2022/01/10 08:47:03;;;;;;;68.10;26.33;;;;;;;-2.68;100.00;99124.75;4251052;82;42880;-74
2022/01/10 08:53:08;;;;;;;55.10;22.42;;;;;;;-2.43;100.00;99129.52;4265119;81;44188;-75
2022/01/10 08:59:09;;;;;;;;;;;;;;;-2.42;100.00;99135.13;4275690;81;28510;-76
2022/01/10 09:05:11;;;;;;;43.98;19.05;;;;;;;-2.04;100.00;99142.99;4295461;81;43762;-77
2022/01/10 09:11:12;;;;;;;42.30;17.90;;;;;;;-1.67;100.00;99146.52;4295780;81;42908;-75
2022/01/10 09:17:13;;;;;;;48.35;19.57;;;;;;;-1.49;100.00;99150.48;4222974;82;43725;-76
2022/01/10 09:23:15;;;;;;;46.53;19.67;;;;;;;-1.29;100.00;99156.45;4215648;83;43777;-77
2022/01/10 09:29:16;;;;;;;46.73;20.50;;;;;;;-0.88;100.00;99159.42;4293577;81;43731;-75
2022/01/10 09:35:22;;;;;;;61.27;22.13;;;;;;;-1.23;100.00;99166.38;4293716;81;28573;-75
2022/01/10 09:41:25;;;;;;;53.33;22.52;;;;;;;-1.23;100.00;99169.52;4293295;81;44160;-74
2022/01/10 09:47:27;;;;;;;53.50;21.15;;;;;;;-0.93;100.00;99166.95;4291788;81;44137;-75
2022/01/10 09:53:28;;;;;;;54.10;21.30;;;;;;;-1.32;100.00;99169.92;4268432;81;44205;-75
2022/01/10 09:59:30;;;;;;;53.85;21.27;;;;;;;-1.38;100.00;99183.22;4247830;82;44134;-75
2022/01/10 10:05:31;;;;;;;51.50;21.57;;;;;;;-0.97;100.00;99177.97;4241820;82;44030;-75
2022/01/10 10:11:42;;;;;;;52.20;21.12;;;;;;;-0.81;100.00;99188.67;4245208;82;43902;-75
2022/01/10 10:17:45;;;;;;;54.93;19.92;;;;;;;-0.50;100.00;99186.91;4249984;82;44106;-76
2022/01/10 10:23:48;;;;;;;55.38;22.13;;;;;;;-0.25;100.00;99201.56;4240063;82;44075;-75
2022/01/10 10:29:49;;;;;;;49.90;20.45;;;;;;;-0.37;100.00;99208.10;4249886;82;44509;-74
2022/01/10 10:36:03;;;;;;;51.63;21.80;;;;;;;-0.53;100.00;99214.11;4250112;83;43744;-74
2022/01/10 10:42:09;;;;;;;48.83;20.90;;;;;;;-0.34;100.00;99220.52;4248283;83;44462;-75
2022/01/10 10:48:11;;;;;;;59.42;22.45;;;;;;;-0.40;100.00;99225.59;4243472;82;44091;-74
2022/01/10 10:54:13;;;;;;;52.88;21.85;;;;;;;0.27;100.00;99232.86;4252607;82;44126;-76
2022/01/10 11:00:15;;;;;;;49.03;20.75;;;;;;;0.50;100.00;99230.47;4256386;82;43784;-75
2022/01/10 11:06:17;;;;;;;49.95;19.17;;;;;;;0.07;100.00;99246.33;4258137;82;43768;-75
2022/01/10 11:12:23;;;;;;;46.58;20.75;;;;;;;0.39;100.00;99252.75;4258391;82;43756;-74
2022/01/10 11:18:25;;;;;;;43.65;18.02;;;;;;;0.59;100.00;99256.96;4258993;82;43755;-75
2022/01/10 11:24:51;;;;;;;47.40;20.08;;;;;;;0.52;100.00;99262.05;4253581;82;43763;-75
2022/01/10 11:30:55;;;;;;;;;;;;;;;0.50;100.00;99267.99;4259052;82;28515;-75
2022/01/10 11:36:57;;;;;;;44.27;18.47;;;;;;;0.93;100.00;99268.77;4257686;82;20280;-76
2022/01/10 11:42:59;;;;;;;39.15;17.65;;;;;;;0.58;100.00;99277.29;4262706;82;28499;-75
2022/01/10 11:49:13;;;;;;;40.45;16.67;;;;;;;0.12;100.00;99282.88;4258091;82;44461;-75
2022/01/10 11:55:15;;;;;;;40.28;18.05;;;;;;;-0.32;100.00;99305.73;4254650;82;44532;-75
2022/01/10 12:01:19;;;;;;;34.95;16.12;;;;;;;-0.03;100.00;99314.34;4196953;83;44146;-75
2022/01/10 12:07:22;;;;;;;37.73;16.37;;;;;;;0.34;100.00;99314.57;4193701;82;44533;-75
2022/01/10 12:13:28;;;;;;;40.88;18.00;;;;;;;0.19;100.00;99322.73;4224893;82;43694;-78
2022/01/10 12:19:28;;;;;;;42.00;18.95;;;;;;;0.47;100.00;99324.72;4137209;83;42914;-77
2022/01/10 12:25:29;;;;;;;40.45;18.67;;;;;;;0.68;100.00;99326.95;4229844;82;43670;-77
2022/01/10 12:31:33;;;;;;;45.43;18.27;;;;;;;0.96;100.00;99333.81;4229542;82;43752;-77
2022/01/10 12:37:34;;;;;;;42.38;19.40;;;;;;;0.86;100.00;99342.39;4231528;82;43739;-77
2022/01/10 12:43:36;;;;;;;42.10;18.73;;;;;;;0.85;100.00;99344.22;4226480;82;43670;-78
2022/01/10 12:49:39;;;;;;;40.23;17.45;;;;;;;0.74;100.00;99356.42;4233120;82;44513;-76
2022/01/10 12:55:41;;;;;;;40.17;17.73;;;;;;;0.84;100.00;99371.69;4253491;82;44488;-78
2022/01/10 13:01:44;;;;;;;36.75;17.67;;;;;;;0.95;100.00;99387.28;4243625;82;44493;-76
2022/01/10 13:07:50;;;;;;;36.30;16.73;;;;;;;1.02;100.00;99406.00;4364322;80;44479;-76
2022/01/10 13:13:51;;;;;;;39.80;16.75;;;;;;;0.94;100.00;99412.10;4366392;80;28492;-77
2022/01/10 13:20:06;;;;;;;41.05;18.62;;;;;;;1.18;100.00;99426.42;4339373;80;44493;-80
2022/01/10 13:26:12;;;;;;;;;;;;;;;0.66;100.00;99437.44;4369599;80;28496;-79
2022/01/10 13:32:30;;;;;;;39.80;17.23;;;;;;;1.01;100.00;99440.09;4353326;80;20274;-78
2022/01/10 13:38:31;;;;;;;38.08;17.32;;;;;;;1.13;100.00;99453.86;4373230;80;50942;-78
2022/01/10 13:44:55;;;;;;;38.23;17.10;;;;;;;1.03;100.00;99457.97;4371685;80;44475;-77
2022/01/10 13:51:00;;;;;;;37.75;17.17;;;;;;;0.93;100.00;99468.66;4363407;80;44459;-77
2022/01/10 13:57:22;;;;;;;34.78;15.80;;;;;;;1.14;100.00;99481.19;4342988;80;28522;-79
2022/01/10 14:03:27;;;;;;;35.68;16.40;;;;;;;1.19;100.00;99495.61;4335216;80;44424;-78
2022/01/10 14:09:29;;;;;;;36.80;16.15;;;;;;;1.07;100.00;99507.48;4339716;80;28520;-77
2022/01/10 14:15:30;;;;;;;36.28;17.10;;;;;;;0.75;100.00;99524.33;4354299;80;44412;-76
2022/01/10 14:21:32;;;;;;;38.73;16.20;;;;;;;0.94;100.00;99534.38;4350820;80;44495;-76
2022/01/10 14:27:34;;;;;;;31.77;14.73;;;;;;;0.87;100.00;99552.71;4355212;80;44136;-76
2022/01/10 14:33:35;;;;;;;38.33;16.05;;;;;;;0.25;100.00;99560.97;4353507;80;44443;-77
2022/01/10 14:39:37;;;;;;;35.68;16.10;;;;;;;0.51;100.00;99578.73;4346824;80;44490;-76
2022/01/10 14:45:38;;;;;;;40.35;16.77;;;;;;;0.94;100.00;99580.23;4353442;80;44480;-79
2022/01/10 14:51:39;;;;;;;33.85;15.90;;;;;;;1.08;100.00;99589.41;4253913;81;44071;-76
2022/01/10 14:57:41;;;;;;;32.30;15.18;;;;;;;0.93;100.00;99594.94;4212794;83;44108;-78
2022/01/10 15:03:42;;;;;;;30.35;14.40;;;;;;;1.16;100.00;99600.56;4209134;83;44104;-78
2022/01/10 15:09:45;;;;;;;34.78;15.65;;;;;;;1.05;100.00;99610.91;4244322;82;28522;-77
2022/01/10 15:15:47;;;;;;;35.20;15.50;;;;;;;1.14;100.00;99620.24;4243470;82;44446;-77
2022/01/10 15:21:48;;;;;;;34.58;16.00;;;;;;;1.20;100.00;99628.91;4291067;81;44130;-76
2022/01/10 15:27:50;;;;;;;34.33;14.98;;;;;;;1.23;100.00;99645.80;4294250;81;44102;-79
2022/01/10 15:33:52;;;;;;;33.63;15.48;;;;;;;1.25;100.00;99647.32;4293246;81;44074;-80
2022/01/10 15:39:54;;;;;;;30.12;14.40;;;;;;;1.26;100.00;99658.73;4289839;81;43439;-76
2022/01/10 15:45:58;;;;;;;31.00;13.28;;;;;;;1.04;100.00;99676.78;4289406;81;43428;-78
2022/01/10 15:51:59;;;;;;;22.25;10.78;;;;;;;0.80;100.00;99690.16;4291238;81;28498;-78
2022/01/10 15:58:00;;;;;;;20.20;10.88;;;;;;;0.43;100.00;99695.07;4241131;81;44494;-79
2022/01/10 16:04:23;;;;;;;24.50;12.00;;;;;;;0.97;100.00;99707.02;4228363;82;43705;-78
2022/01/10 16:10:25;;;;;;;20.30;9.23;;;;;;;0.64;100.00;99713.33;4241105;82;43961;-79
2022/01/10 16:16:26;;;;;;;16.70;9.05;;;;;;;0.78;100.00;99728.34;4235131;82;44000;-79
2022/01/10 16:22:28;;;;;;;15.15;8.30;;;;;;;0.70;100.00;99739.70;4249844;82;44006;-79
2022/01/10 16:28:29;;;;;;;15.15;8.35;;;;;;;0.68;100.00;99745.12;4239708;82;43984;-79
2022/01/10 16:34:30;;;;;;;18.70;9.50;;;;;;;0.89;100.00;99763.87;4247537;82;43952;-77
2022/01/10 16:40:35;;;;;;;17.65;8.60;;;;;;;0.72;100.00;99779.23;4242277;82;43948;-75
2022/01/10 16:46:42;;;;;;;18.55;9.03;;;;;;;0.71;100.00;99780.21;4160692;84;43927;-81
2022/01/10 16:52:43;;;;;;;17.67;8.80;;;;;;;0.76;100.00;99793.34;4110933;85;28503;-83
2022/01/10 16:58:45;;;;;;;17.52;9.23;;;;;;;0.77;100.00;99803.45;4113947;85;43968;-82
2022/01/10 17:04:46;;;;;;;18.02;9.43;;;;;;;0.68;100.00;99812.63;4119925;83;43930;-81
2022/01/10 17:10:58;;;;;;;17.75;9.05;;;;;;;0.87;100.00;99824.56;4227178;83;43922;-80
2022/01/10 17:16:57;;;;;;;18.87;9.50;;;;;;;0.78;100.00;99826.30;4209954;83;43934;-82
2022/01/10 17:22:58;;;;;;;20.43;9.98;;;;;;;0.93;100.00;99846.48;4214549;83;44493;-73
2022/01/10 17:29:00;;;;;;;16.77;9.33;;;;;;;0.76;100.00;99850.77;4208393;82;44033;-74
2022/01/10 17:35:04;;;;;;;16.12;8.40;;;;;;;0.97;100.00;99859.28;4181019;83;43926;-76
2022/01/10 17:41:06;;;;;;;22.20;10.50;;;;;;;0.70;100.00;99876.01;4218117;83;44459;-75
2022/01/10 17:47:10;;;;;;;17.65;9.83;;;;;;;0.87;100.00;99886.78;4210579;83;43926;-73
2022/01/10 17:53:12;;;;;;;16.15;8.45;;;;;;;0.64;100.00;99897.28;4209040;83;43974;-74
2022/01/10 17:59:13;;;;;;;14.87;8.40;;;;;;;0.65;100.00;99893.66;4219592;82;43902;-74
2022/01/10 18:05:17;;;;;;;18.00;8.90;;;;;;;0.40;100.00;99899.09;4224453;82;43924;-78
2022/01/10 18:11:19;;;;;;;19.65;9.83;;;;;;;0.52;100.00;99907.20;4185519;83;43958;-76
2022/01/10 18:17:21;;;;;;;18.95;10.08;;;;;;;0.33;100.00;99917.36;4244172;82;44449;-77
2022/01/10 18:23:23;;;;;;;19.60;9.65;;;;;;;0.81;100.00;99918.66;4223253;82;43978;-79
2022/01/10 18:29:27;;;;;;;21.12;10.28;;;;;;;0.63;100.00;99928.70;4224587;82;44489;-78
2022/01/10 18:35:29;;;;;;;24.20;10.85;;;;;;;0.30;100.00;99930.84;4194438;83;43741;-75
2022/01/10 18:41:30;;;;;;;22.80;11.28;;;;;;;0.56;100.00;99950.09;4161260;84;28548;-74
2022/01/10 18:47:31;;;;;;;21.90;11.10;;;;;;;0.78;100.00;99956.02;4208404;82;45019;-74
2022/01/10 18:53:33;;;;;;;21.80;10.78;;;;;;;0.64;100.00;99959.95;4159944;84;44471;-82
2022/01/10 18:59:37;;;;;;;25.30;12.13;;;;;;;0.60;100.00;99982.41;4231449;83;43319;-81
2022/01/10 19:05:38;;;;;;;23.32;11.70;;;;;;;0.80;100.00;99989.80;4196339;83;42903;-84
2022/01/10 19:11:40;;;;;;;25.50;11.03;;;;;;;0.91;100.00;99994.91;4221777;83;42912;-77
2022/01/10 19:17:42;;;;;;;21.55;9.85;;;;;;;0.92;100.00;100010.33;4273099;82;43914;-77
2022/01/10 19:23:43;;;;;;;17.92;9.28;;;;;;;0.82;100.00;100013.83;4218223;83;43917;-79
2022/01/10 19:29:44;;;;;;;19.62;9.38;;;;;;;0.69;100.00;100023.39;4278572;82;43948;-77
2022/01/10 19:35:46;;;;;;;21.80;10.88;;;;;;;0.51;100.00;100034.35;4265076;82;44556;-81
2022/01/10 19:41:47;;;;;;;19.80;9.75;;;;;;;0.34;100.00;100034.10;4282574;82;43931;-75
2022/01/10 19:47:50;;;;;;;20.95;10.55;;;;;;;0.13;100.00;100047.45;4274148;82;44446;-77
2022/01/10 19:53:51;;;;;;;18.85;9.15;;;;;;;-0.25;100.00;100059.16;4296617;82;43891;-78
2022/01/10 19:59:56;;;;;;;17.90;9.38;;;;;;;0.43;100.00;100062.84;4280110;82;43953;-76
2022/01/10 20:05:56;;;;;;;21.73;9.95;;;;;;;-0.07;100.00;100068.58;4271613;82;44405;-79
2022/01/10 20:11:58;;;;;;;18.90;9.00;;;;;;;0.45;100.00;100078.09;4304258;81;43925;-75
2022/01/10 20:17:59;;;;;;;15.60;8.58;;;;;;;0.21;100.00;100085.95;4302246;81;43924;-76
2022/01/10 20:24:01;;;;;;;20.37;9.35;;;;;;;0.69;100.00;100082.95;4304284;81;43948;-76
2022/01/10 20:30:05;;;;;;;19.02;8.53;;;;;;;0.32;100.00;100090.77;4302583;82;43920;-78
2022/01/10 20:36:06;;;;;;;19.57;10.35;;;;;;;0.20;100.00;100101.95;4224895;82;44430;-78
2022/01/10 20:42:07;;;;;;;19.15;8.78;;;;;;;0.04;100.00;100115.23;4236121;82;43914;-74
2022/01/10 20:48:09;;;;;;;16.17;7.70;;;;;;;0.16;100.00;100129.19;4270133;82;28581;-72
2022/01/10 20:54:11;;;;;;;17.42;8.20;;;;;;;0.33;100.00;100135.61;4210566;82;43961;-75
2022/01/10 21:00:13;;;;;;;14.60;7.87;;;;;;;-0.15;100.00;100139.82;4267806;82;43941;-75
2022/01/10 21:06:15;;;;;;;16.70;7.85;;;;;;;0.08;100.00;100143.56;4292589;81;43901;-74
2022/01/10 21:12:16;;;;;;;15.80;7.97;;;;;;;0.06;100.00;100147.66;4253943;82;43974;-76
2022/01/10 21:18:18;;;;;;;15.28;8.40;;;;;;;-0.21;100.00;100161.02;4281972;81;43999;-74
2022/01/10 21:24:19;;;;;;;20.52;9.78;;;;;;;-0.15;100.00;100165.76;4284468;81;43941;-77
2022/01/10 21:30:26;;;;;;;17.75;9.38;;;;;;;-0.06;100.00;100172.54;4298600;81;43897;-75
2022/01/10 21:36:29;;;;;;;18.00;9.13;;;;;;;0.17;100.00;100179.78;4195966;83;44013;-75
2022/01/10 21:42:30;;;;;;;19.52;9.18;;;;;;;0.20;100.00;100182.16;4249679;82;43941;-81
2022/01/10 21:48:32;;;;;;;16.65;8.63;;;;;;;0.11;100.00;100191.74;4207428;83;43957;-80
2022/01/10 21:54:36;;;;;;;16.80;8.90;;;;;;;-0.06;100.00;100194.51;4205451;82;34408;-78
2022/01/10 22:00:38;;;;;;;19.45;9.45;;;;;;;0.12;100.00;100201.34;4213355;83;43922;-78
2022/01/10 22:06:41;;;;;;;18.32;8.93;;;;;;;0.14;100.00;100210.45;4216570;83;43935;-77
2022/01/10 22:12:45;;;;;;;18.67;9.38;;;;;;;0.26;100.00;100217.81;4191063;83;43926;-77
2022/01/10 22:18:47;;;;;;;18.23;9.35;;;;;;;0.16;100.00;100229.69;4229690;83;43941;-77
2022/01/10 22:24:49;;;;;;;17.10;8.20;;;;;;;-0.11;100.00;100230.25;4225024;82;43905;-78
2022/01/10 22:30:50;;;;;;;17.05;8.50;;;;;;;0.10;100.00;100233.68;4240420;82;43947;-78
2022/01/10 22:36:52;;;;;;;17.35;8.08;;;;;;;0.26;100.00;100238.97;4239607;82;43949;-78
2022/01/10 22:42:53;;;;;;;14.55;7.45;;;;;;;-0.17;100.00;100259.38;4234466;82;43929;-77
2022/01/10 22:48:54;;;;;;;21.07;11.15;;;;;;;-0.12;100.00;100258.52;4213976;83;44450;-77
2022/01/10 22:54:56;;;;;;;22.17;11.08;;;;;;;0.01;100.00;100264.91;4232834;82;44543;-80
2022/01/10 23:00:58;;;;;;;17.75;8.73;;;;;;;0.43;100.00;100267.09;4234616;82;43902;-77
2022/01/10 23:06:59;;;;;;;20.02;9.95;;;;;;;0.21;100.00;100274.23;4227424;82;44512;-77
2022/01/10 23:13:01;;;;;;;17.00;7.95;;;;;;;0.29;100.00;100274.91;4288930;81;43924;-77
2022/01/10 23:19:02;;;;;;;15.88;7.33;;;;;;;0.33;100.00;100289.06;4276256;81;43936;-79
2022/01/10 23:25:06;;;;;;;15.15;7.85;;;;;;;0.04;100.00;100299.02;4273117;81;43905;-78
2022/01/10 23:31:09;;;;;;;17.73;7.75;;;;;;;-0.02;100.00;100298.20;4270142;81;43940;-76
2022/01/10 23:37:10;;;;;;;15.35;8.30;;;;;;;0.08;100.00;100303.06;4284803;81;43924;-77
2022/01/10 23:43:12;;;;;;;17.32;8.30;;;;;;;-0.25;100.00;100312.90;4301031;81;43905;-79
2022/01/10 23:49:13;;;;;;;14.78;7.55;;;;;;;-0.01;100.00;100308.67;4238096;82;43977;-77
2022/01/10 23:55:17;;;;;;;16.52;8.00;;;;;;;0.05;100.00;100306.45;4288268;82;43894;-77
